Portada
METAR-TAF:

METAR-TAF

Aeroports :

Liverpool, Anglaterra

latitud: 53-20N, longitud: 002-51W, altitud: 26 m

Observació

L'informe es va fer fa 35 minuts, a les 19:20 UTC
Vent 3 kt del Est/Sud-Est
Temperatura 21°C
Humitat 73%
Pressió 1016 hPa
Visibilitat 10 km o més
sense núvols per sota de 1500 mi sense presència de cumulonimbus.

METAR: EGGP 241920Z 11003KT CAVOK 21/16 Q1016

Hora: 20:55 (19:55 UTC)

Pronòstic

L'informe es va fer fa 3 hores i 0 minuts, a les 16:55 UTC
Pronòstic vàlid del 24 a les 18 UTC al 25 a les 18 UTC
Vent 6 kt del Est/Sud-Est
Visibilitat 10 km o més
Escasses núvols a una alçada de 4500 ft
Evolucionant progressivament
l' 25 a les 10 UTC al 25 a les 13 UTC
Vent 10 kt del Nord-Oest

TAF: EGGP 241655Z 2418/2518 12006KT 9999 FEW045 BECMG 2510/2513 31010KT

Observacions i pronòstics meteorològics de més de 4000 aeroports (METAR i TAF).

Les estacions disponibles són els punts grocs i vermells al mapa.

Posi el ratolí al punt desitjat per veure el nom de l'estació.

Feu clic per veure les observacions i els pronòstics meteorològics.

Per canviar el mapa: feu clic els botons verds amb una creu de color negre per apropar; al botó verd amb un guió per allunyar la imatge; o en les fletxes verdes per a mapes adjacents.


METAR-TAF: